createdAt,value
2023-02-01T00:00:35.490Z,94471.66
2023-02-01T00:03:04.006Z,94477.66
2023-02-01T00:05:33.867Z,94491.16
2023-02-01T00:08:02.330Z,94479.44
2023-02-01T00:10:30.810Z,94474.66
2023-02-01T00:12:59.270Z,94480.00
2023-02-01T00:15:27.715Z,94474.66
2023-02-01T00:17:57.033Z,94491.69
2023-02-01T00:20:25.509Z,94490.16
2023-02-01T00:22:55.357Z,94489.91
2023-02-01T00:25:24.325Z,94485.13
2023-02-01T00:27:52.884Z,94486.72
2023-02-01T00:30:26.328Z,94484.75
2023-02-01T00:32:54.886Z,94487.47
2023-02-01T00:35:23.381Z,94479.50
2023-02-01T00:37:51.852Z,94480.53
2023-02-01T00:40:22.131Z,94483.22
2023-02-01T00:42:50.819Z,94472.47
2023-02-01T00:45:19.450Z,94467.69
2023-02-01T00:47:47.969Z,94476.22
2023-02-01T00:50:17.457Z,94477.34
2023-02-01T00:52:45.908Z,94464.59
2023-02-01T00:55:14.308Z,94469.75
2023-02-01T00:57:44.192Z,94458.19
2023-02-01T01:00:14.032Z,94458.19
2023-02-01T01:02:43.628Z,94463.31
2023-02-01T01:05:12.054Z,94462.13
2023-02-01T01:07:41.963Z,94457.78
2023-02-01T01:10:11.697Z,94461.31
2023-02-01T01:13:06.800Z,94459.56
2023-02-01T01:15:38.662Z,94457.38
2023-02-01T01:18:08.354Z,94457.78
2023-02-01T01:20:40.280Z,94459.19
2023-02-01T01:23:10.315Z,94459.78
2023-02-01T01:25:41.148Z,94465.81
2023-02-01T01:28:11.027Z,94457.44
2023-02-01T01:30:39.515Z,94465.41
2023-02-01T01:33:08.142Z,94462.66
2023-02-01T01:35:37.174Z,94459.66
2023-02-01T01:38:13.373Z,94465.38
2023-02-01T01:40:41.961Z,94454.69
2023-02-01T01:43:17.904Z,94459.44
2023-02-01T01:45:46.459Z,94456.56
2023-02-01T01:48:20.927Z,94452.41
2023-02-01T01:51:10.644Z,94457.97
2023-02-01T01:53:47.293Z,94460.50
2023-02-01T01:56:16.771Z,94465.94
2023-02-01T01:58:46.741Z,94453.28
2023-02-01T02:01:15.446Z,94457.81
2023-02-01T02:03:48.735Z,94463.63
2023-02-01T02:06:32.539Z,94464.00
2023-02-01T02:09:26.493Z,94450.25
2023-02-01T02:11:55.048Z,94462.31
2023-02-01T02:14:27.900Z,94465.00
2023-02-01T02:17:17.264Z,94476.50
2023-02-01T02:20:41.973Z,94484.25
2023-02-01T02:24:07.311Z,94495.78
2023-02-01T02:27:23.958Z,94492.09
2023-02-01T02:30:25.020Z,94497.78
2023-02-01T02:33:47.826Z,94494.78
2023-02-01T02:36:24.871Z,94497.03
2023-02-01T02:39:06.764Z,94497.84
2023-02-01T02:42:09.944Z,94490.03
2023-02-01T02:45:07.080Z,94495.38
2023-02-01T02:47:47.622Z,94487.31
2023-02-01T02:50:46.554Z,94489.47
2023-02-01T02:53:35.560Z,94483.34
2023-02-01T02:56:29.740Z,94474.72
2023-02-01T02:59:17.306Z,94477.19
2023-02-01T03:02:03.723Z,94487.56
2023-02-01T03:04:32.197Z,94493.72
2023-02-01T03:07:16.983Z,94498.88
2023-02-01T03:09:51.060Z,94503.66
2023-02-01T03:15:31.763Z,94516.41
2023-02-01T03:18:03.814Z,94512.25
2023-02-01T03:20:34.507Z,94497.59
2023-02-01T03:23:08.633Z,94500.53
2023-02-01T03:25:37.766Z,94508.09
2023-02-01T03:28:11.183Z,94507.84
2023-02-01T03:30:44.290Z,94508.44
2023-02-01T03:36:37.723Z,94498.31
2023-02-01T03:39:36.816Z,94501.69
2023-02-01T03:42:33.507Z,94491.38
2023-02-01T03:45:11.270Z,94486.72
2023-02-01T03:48:05.892Z,94492.78
2023-02-01T03:50:40.628Z,94494.19
2023-02-01T03:53:14.421Z,94505.09
2023-02-01T03:55:45.073Z,94496.28
2023-02-01T03:58:19.950Z,94504.34
2023-02-01T04:00:54.960Z,94509.50
2023-02-01T04:03:23.958Z,94511.25
2023-02-01T04:05:53.072Z,94507.16
2023-02-01T04:08:22.947Z,94503.59
2023-02-01T04:10:52.934Z,94509.06
2023-02-01T04:13:28.337Z,94508.09
2023-02-01T04:15:56.911Z,94498.63
2023-02-01T04:18:25.387Z,94501.44
2023-02-01T04:20:53.841Z,94511.81
2023-02-01T04:23:22.839Z,94510.78
2023-02-01T04:25:52.806Z,94508.44
2023-02-01T04:28:24.350Z,94514.97
2023-02-01T04:30:52.830Z,94501.31
2023-02-01T04:33:21.411Z,94502.31
2023-02-01T04:35:50.107Z,94507.50
2023-02-01T04:38:18.856Z,94513.09
2023-02-01T04:40:50.660Z,94517.72
2023-02-01T04:43:30.279Z,94517.94
2023-02-01T04:45:58.795Z,94516.78
2023-02-01T04:48:27.312Z,94516.63
2023-02-01T04:50:55.824Z,94513.47
2023-02-01T04:53:24.413Z,94522.41
2023-02-01T04:55:52.848Z,94526.22
2023-02-01T04:58:21.319Z,94527.75
2023-02-01T05:00:52.406Z,94536.41
2023-02-01T05:03:21.293Z,94532.09
2023-02-01T05:05:50.221Z,94540.94
2023-02-01T05:08:19.127Z,94535.53
2023-02-01T05:10:47.865Z,94545.50
2023-02-01T05:13:33.608Z,94544.09
2023-02-01T05:16:03.506Z,94532.78
2023-02-01T05:18:32.002Z,94524.63
2023-02-01T05:21:00.427Z,94526.44
2023-02-01T05:23:28.862Z,94538.53
2023-02-01T05:26:02.280Z,94535.59
2023-02-01T05:28:31.359Z,94526.03
2023-02-01T05:31:26.001Z,94530.00
2023-02-01T05:33:54.598Z,94522.50
2023-02-01T05:36:23.268Z,94532.63
2023-02-01T05:38:57.721Z,94531.47
2023-02-01T05:41:26.475Z,94533.06
2023-02-01T05:43:54.916Z,94532.88
2023-02-01T05:46:25.035Z,94538.09
2023-02-01T05:49:04.379Z,94529.38
2023-02-01T05:51:32.998Z,94527.78
2023-02-01T05:54:01.462Z,94528.44
2023-02-01T05:56:29.999Z,94536.63
2023-02-01T05:59:24.777Z,94537.22
2023-02-01T06:01:54.678Z,94530.84
2023-02-01T06:04:23.181Z,94550.31
2023-02-01T06:06:52.233Z,94541.19
2023-02-01T06:09:20.848Z,94537.25
2023-02-01T06:11:49.285Z,94530.13
2023-02-01T06:14:17.837Z,94539.91
2023-02-01T06:16:47.665Z,94539.50
2023-02-01T06:19:18.330Z,94548.47
2023-02-01T06:21:46.791Z,94541.47
2023-02-01T06:24:15.278Z,94549.00
2023-02-01T06:26:43.969Z,94543.09
2023-02-01T06:29:13.101Z,94550.25
2023-02-01T06:31:43.982Z,94546.72
2023-02-01T06:34:12.620Z,94558.22
2023-02-01T06:36:42.454Z,94559.44
2023-02-01T06:39:10.919Z,94558.25
2023-02-01T06:42:04.650Z,94550.31
2023-02-01T06:44:33.157Z,94558.63
2023-02-01T06:47:01.632Z,94566.16
2023-02-01T06:50:01.209Z,94568.50
2023-02-01T06:52:31.090Z,94568.50
2023-02-01T06:54:59.574Z,94569.94
2023-02-01T06:57:31.489Z,94579.31
2023-02-01T07:00:00.497Z,94579.09
2023-02-01T07:02:28.963Z,94588.03
2023-02-01T07:04:57.429Z,94590.19
2023-02-01T07:07:25.963Z,94595.19
2023-02-01T07:09:55.846Z,94593.19
2023-02-01T07:12:24.269Z,94597.03
2023-02-01T07:14:52.716Z,94589.47
2023-02-01T07:17:21.156Z,94590.34
2023-02-01T07:19:49.618Z,94594.72
2023-02-01T07:22:19.195Z,94603.84
2023-02-01T07:24:47.555Z,94609.63
2023-02-01T07:27:42.992Z,94609.84
2023-02-01T07:30:13.472Z,94601.50
2023-02-01T07:32:42.300Z,94619.19
2023-02-01T07:35:11.213Z,94614.28
2023-02-01T07:37:39.711Z,94619.72
2023-02-01T07:40:10.128Z,94624.59
2023-02-01T07:42:38.760Z,94619.69
2023-02-01T07:45:20.872Z,94616.53
2023-02-01T07:47:50.131Z,94616.16
2023-02-01T07:50:18.993Z,94621.94
2023-02-01T07:52:47.765Z,94621.16
2023-02-01T07:55:16.433Z,94619.19
2023-02-01T07:57:44.815Z,94622.97
2023-02-01T08:00:33.713Z,94628.75
2023-02-01T08:03:02.862Z,94630.41
2023-02-01T08:05:31.279Z,94617.84
2023-02-01T08:07:59.842Z,94624.63
2023-02-01T08:10:28.299Z,94612.69
2023-02-01T08:13:02.059Z,94626.22
2023-02-01T08:15:32.566Z,94620.50
2023-02-01T08:18:03.459Z,94621.53
2023-02-01T08:20:32.217Z,94617.94
2023-02-01T08:23:00.821Z,94621.53
2023-02-01T08:25:29.419Z,94616.97
2023-02-01T08:27:58.021Z,94618.56
2023-02-01T08:30:52.819Z,94631.88
2023-02-01T08:33:21.354Z,94641.88
2023-02-01T08:35:49.915Z,94635.91
2023-02-01T08:38:18.384Z,94641.50
2023-02-01T08:40:47.373Z,94636.75
2023-02-01T08:43:18.799Z,94638.34
2023-02-01T08:46:14.466Z,94633.56
2023-02-01T08:48:44.080Z,94632.34
2023-02-01T08:51:15.163Z,94625.84
2023-02-01T08:53:44.321Z,94631.91
2023-02-01T08:56:16.026Z,94622.41
2023-02-01T08:58:44.897Z,94625.78
2023-02-01T09:01:18.024Z,94638.25
2023-02-01T09:03:47.676Z,94638.25
2023-02-01T09:06:17.262Z,94636.56
2023-02-01T09:08:46.513Z,94637.50
2023-02-01T09:11:17.974Z,94644.78
2023-02-01T09:13:47.387Z,94635.03
2023-02-01T09:16:17.964Z,94630.06
2023-02-01T09:18:56.146Z,94648.50
2023-02-01T09:21:35.079Z,94649.41
2023-02-01T09:24:05.182Z,94635.84
2023-02-01T09:26:33.834Z,94635.66
2023-02-01T09:29:04.577Z,94637.88
2023-02-01T09:31:34.778Z,94632.44
2023-02-01T09:34:03.292Z,94639.31
2023-02-01T09:36:32.410Z,94625.78
2023-02-01T09:39:01.880Z,94628.88
2023-02-01T09:41:45.348Z,94620.84
2023-02-01T09:44:48.703Z,94617.50
2023-02-01T09:47:22.726Z,94598.31
2023-02-01T09:49:58.246Z,94595.41
2023-02-01T09:52:36.780Z,94591.91
2023-02-01T09:55:40.513Z,94585.31
2023-02-01T09:58:18.895Z,94583.03
2023-02-01T10:00:55.192Z,94589.94
2023-02-01T10:03:30.363Z,94582.78
2023-02-01T10:09:48.555Z,94582.72
2023-02-01T10:12:52.375Z,94572.66
2023-02-01T10:15:49.779Z,94578.06
2023-02-01T10:19:19.092Z,94568.16
2023-02-01T10:22:06.176Z,94574.13
2023-02-01T10:24:44.044Z,94569.03
2023-02-01T10:27:21.567Z,94562.06
2023-02-01T10:29:56.624Z,94559.78
2023-02-01T10:32:32.064Z,94560.75
2023-02-01T10:35:29.518Z,94550.66
2023-02-01T10:38:03.808Z,94551.16
2023-02-01T10:40:32.291Z,94552.50
2023-02-01T10:43:04.312Z,94567.97
2023-02-01T10:45:35.568Z,94569.78
2023-02-01T10:48:06.144Z,94552.78
2023-02-01T10:50:42.723Z,94550.94
2023-02-01T10:53:19.481Z,94557.88
2023-02-01T10:55:54.500Z,94545.28
2023-02-01T10:58:30.065Z,94541.31
2023-02-01T11:01:04.097Z,94555.56
2023-02-01T11:03:44.374Z,94549.53
2023-02-01T11:06:30.430Z,94544.53
2023-02-01T11:09:02.755Z,94541.69
2023-02-01T11:11:31.222Z,94537.00
2023-02-01T11:14:02.698Z,94519.69
2023-02-01T11:16:37.112Z,94522.72
2023-02-01T11:19:07.208Z,94538.31
2023-02-01T11:21:38.957Z,94522.53
2023-02-01T11:24:36.574Z,94539.31
2023-02-01T11:27:27.664Z,94516.13
2023-02-01T11:30:03.341Z,94517.84
2023-02-01T11:32:50.325Z,94521.81
2023-02-01T11:35:23.274Z,94503.56
2023-02-01T11:38:00.703Z,94511.69
2023-02-01T11:40:37.540Z,94508.13
2023-02-01T11:43:25.247Z,94497.41
2023-02-01T11:45:59.827Z,94488.31
2023-02-01T11:48:32.490Z,94499.94
2023-02-01T11:51:26.977Z,94504.16
2023-02-01T11:54:20.771Z,94512.53
2023-02-01T11:57:06.791Z,94491.47
2023-02-01T11:59:59.751Z,94499.56
2023-02-01T12:03:21.548Z,94501.34
2023-02-01T12:06:01.132Z,94495.66
2023-02-01T12:08:51.877Z,94498.81
2023-02-01T12:11:45.199Z,94488.84
2023-02-01T12:14:44.536Z,94488.72
2023-02-01T12:17:59.347Z,94497.91
2023-02-01T12:21:09.160Z,94488.06
2023-02-01T12:24:09.089Z,94488.25
2023-02-01T12:27:09.282Z,94493.41
2023-02-01T12:30:04.321Z,94473.38
2023-02-01T12:32:56.055Z,94482.44
2023-02-01T12:35:46.453Z,94485.81
2023-02-01T12:38:44.648Z,94481.19
2023-02-01T12:41:43.551Z,94486.66
2023-02-01T12:44:47.069Z,94485.88
2023-02-01T12:47:25.191Z,94488.94
2023-02-01T12:50:02.858Z,94479.66
2023-02-01T12:52:42.170Z,94483.25
2023-02-01T12:55:24.823Z,94485.56
2023-02-01T12:57:57.746Z,94481.69
2023-02-01T13:00:37.211Z,94476.38
2023-02-01T13:03:16.289Z,94479.78
2023-02-01T13:05:56.383Z,94478.63
2023-02-01T13:08:31.267Z,94481.13
2023-02-01T13:11:06.974Z,94467.88
2023-02-01T13:13:48.889Z,94472.06
2023-02-01T13:16:28.661Z,94464.03
2023-02-01T13:19:08.199Z,94464.25
2023-02-01T13:21:42.061Z,94465.00
2023-02-01T13:24:34.877Z,94460.50
2023-02-01T13:27:04.344Z,94475.78
2023-02-01T13:29:36.123Z,94454.56
2023-02-01T13:32:57.040Z,94454.13
2023-02-01T13:35:56.243Z,94462.72
2023-02-01T13:39:17.324Z,94462.16
2023-02-01T13:41:58.082Z,94455.69
2023-02-01T13:44:34.768Z,94459.66
2023-02-01T13:47:12.156Z,94457.97
2023-02-01T13:49:43.206Z,94459.97
2023-02-01T13:52:29.698Z,94459.88
2023-02-01T13:55:25.792Z,94472.03
2023-02-01T13:58:08.975Z,94470.50
2023-02-01T14:00:39.933Z,94469.94
2023-02-01T14:03:47.496Z,94471.66
2023-02-01T14:06:59.210Z,94483.34
2023-02-01T14:09:38.367Z,94480.84
2023-02-01T14:13:07.511Z,94481.34
2023-02-01T14:15:36.361Z,94476.97
2023-02-01T14:18:47.457Z,94487.38
2023-02-01T14:21:26.415Z,94479.31
2023-02-01T14:24:01.888Z,94475.69
2023-02-01T14:26:46.250Z,94480.91
2023-02-01T14:29:39.038Z,94481.34
2023-02-01T14:32:31.298Z,94476.03
2023-02-01T14:35:28.663Z,94456.59
2023-02-01T14:38:05.198Z,94458.16
2023-02-01T14:40:35.443Z,94467.28
2023-02-01T14:43:03.960Z,94469.75
2023-02-01T14:46:06.613Z,94467.50
2023-02-01T14:48:49.372Z,94466.34
2023-02-01T14:51:21.433Z,94465.09
2023-02-01T14:53:53.099Z,94460.19
2023-02-01T14:56:23.094Z,94462.78
2023-02-01T14:58:59.317Z,94453.53
2023-02-01T15:01:56.681Z,94449.84
2023-02-01T15:04:29.562Z,94466.09
2023-02-01T15:07:08.117Z,94469.50
2023-02-01T15:09:49.066Z,94474.53
2023-02-01T15:12:45.573Z,94473.72
2023-02-01T15:15:19.396Z,94447.88
2023-02-01T15:17:59.962Z,94442.59
2023-02-01T15:20:31.306Z,94443.91
2023-02-01T15:23:03.321Z,94443.06
2023-02-01T15:25:37.086Z,94431.31
2023-02-01T15:28:07.133Z,94436.13
2023-02-01T15:30:37.992Z,94445.63
2023-02-01T15:33:10.757Z,94433.50
2023-02-01T15:35:45.655Z,94446.59
2023-02-01T15:38:42.195Z,94443.28
2023-02-01T15:41:18.635Z,94444.28
2023-02-01T15:44:07.842Z,94440.50
2023-02-01T15:46:41.278Z,94443.59
2023-02-01T15:49:28.319Z,94445.50
2023-02-01T15:51:59.133Z,94430.78
2023-02-01T15:54:32.660Z,94437.81
2023-02-01T15:57:04.987Z,94445.47
2023-02-01T15:59:42.501Z,94445.72
2023-02-01T16:02:35.564Z,94444.19
2023-02-01T16:05:27.197Z,94457.81
2023-02-01T16:08:05.119Z,94464.81
2023-02-01T16:10:41.487Z,94462.59
2023-02-01T16:13:12.289Z,94474.19
2023-02-01T16:15:41.354Z,94481.44
2023-02-01T16:18:11.733Z,94468.16
2023-02-01T16:21:06.038Z,94466.31
2023-02-01T16:23:34.514Z,94477.91
2023-02-01T16:26:03.174Z,94484.69
2023-02-01T16:28:33.078Z,94485.88
2023-02-01T16:31:02.401Z,94487.09
2023-02-01T16:33:31.305Z,94485.16
2023-02-01T16:36:03.200Z,94492.31
2023-02-01T16:38:31.689Z,94489.34
2023-02-01T16:41:00.406Z,94503.94
2023-02-01T16:43:56.574Z,94498.75
2023-02-01T16:46:28.311Z,94500.78
2023-02-01T16:49:00.672Z,94492.81
2023-02-01T16:51:43.649Z,94495.63
2023-02-01T16:54:12.594Z,94495.25
2023-02-01T16:56:45.025Z,94495.44
2023-02-01T16:59:34.577Z,94493.59
2023-02-01T17:02:03.100Z,94497.81
2023-02-01T17:04:31.704Z,94499.59
2023-02-01T17:07:01.301Z,94483.84
2023-02-01T17:09:30.500Z,94483.63
2023-02-01T17:11:58.975Z,94486.41
2023-02-01T17:14:29.028Z,94480.25
2023-02-01T17:17:00.640Z,94462.47
2023-02-01T17:19:29.406Z,94462.09
2023-02-01T17:22:00.046Z,94448.75
2023-02-01T17:24:42.710Z,94465.53
2023-02-01T17:27:16.939Z,94465.72
2023-02-01T17:29:48.467Z,94457.59
2023-02-01T17:32:22.307Z,94460.94
2023-02-01T17:34:51.601Z,94457.75
2023-02-01T17:37:27.404Z,94460.72
2023-02-01T17:39:55.934Z,94454.31
2023-02-01T17:42:25.711Z,94454.88
2023-02-01T17:44:59.244Z,94451.31
2023-02-01T17:47:27.916Z,94452.69
2023-02-01T17:49:57.380Z,94454.88
2023-02-01T17:52:27.226Z,94438.53
2023-02-01T17:54:55.907Z,94463.47
2023-02-01T17:57:24.658Z,94453.94
2023-02-01T17:59:53.171Z,94452.53
2023-02-01T18:02:26.559Z,94452.53
2023-02-01T18:04:55.850Z,94446.56
2023-02-01T18:07:24.296Z,94454.94
2023-02-01T18:09:52.912Z,94451.34
2023-02-01T18:12:26.485Z,94456.13
2023-02-01T18:14:55.021Z,94453.78
2023-02-01T18:17:24.979Z,94455.00
2023-02-01T18:19:54.310Z,94455.59
2023-02-01T18:22:25.680Z,94458.19
2023-02-01T18:24:54.350Z,94452.22
2023-02-01T18:27:24.088Z,94457.44
2023-02-01T18:29:52.591Z,94445.88
2023-02-01T18:32:21.248Z,94444.25
2023-02-01T18:35:22.456Z,94451.06
2023-02-01T18:37:53.454Z,94447.06
2023-02-01T18:40:25.513Z,94449.44
2023-02-01T18:42:54.156Z,94442.69
2023-02-01T18:45:31.197Z,94440.28
2023-02-01T18:48:01.547Z,94424.16
2023-02-01T18:50:34.343Z,94430.16
2023-02-01T18:53:06.677Z,94419.56
2023-02-01T18:55:35.739Z,94420.56
2023-02-01T18:58:07.305Z,94423.34
2023-02-01T19:00:36.979Z,94410.19
2023-02-01T19:03:05.599Z,94419.38
2023-02-01T19:05:36.080Z,94419.38
2023-02-01T19:08:04.672Z,94428.78
2023-02-01T19:10:34.339Z,94423.78
2023-02-01T19:13:02.967Z,94436.72
2023-02-01T19:15:33.637Z,94427.97
2023-02-01T19:18:02.135Z,94435.94
2023-02-01T19:20:30.659Z,94433.13
2023-02-01T19:23:00.658Z,94427.56
2023-02-01T19:25:30.473Z,94426.56
2023-02-01T19:27:58.900Z,94431.34
2023-02-01T19:30:27.511Z,94426.75
2023-02-01T19:32:55.977Z,94427.56
2023-02-01T19:35:25.030Z,94422.78
2023-02-01T19:37:53.633Z,94422.56
2023-02-01T19:40:26.330Z,94427.53
2023-02-01T19:42:55.627Z,94426.31
2023-02-01T19:45:24.484Z,94426.31
2023-02-01T19:47:53.199Z,94418.69
2023-02-01T19:50:25.305Z,94421.91
2023-02-01T19:52:53.825Z,94425.88
2023-02-01T19:55:24.098Z,94432.41
2023-02-01T19:57:57.578Z,94426.44
2023-02-01T20:00:25.492Z,94423.44
2023-02-01T20:02:53.979Z,94429.63
2023-02-01T20:05:23.606Z,94429.63
2023-02-01T20:07:52.286Z,94427.81
2023-02-01T20:10:22.246Z,94427.03
2023-02-01T20:12:50.975Z,94427.41
2023-02-01T20:15:19.525Z,94424.25
2023-02-01T20:17:47.997Z,94413.91
2023-02-01T20:20:16.796Z,94425.19
2023-02-01T20:22:45.904Z,94428.59
2023-02-01T20:25:14.894Z,94430.81
2023-02-01T20:27:45.721Z,94428.81
2023-02-01T20:30:20.004Z,94431.22
2023-02-01T20:32:50.657Z,94433.78
2023-02-01T20:35:20.074Z,94427.03
2023-02-01T20:37:49.113Z,94421.44
2023-02-01T20:40:17.836Z,94426.25
2023-02-01T20:42:48.321Z,94416.09
2023-02-01T20:45:17.004Z,94406.41
2023-02-01T20:48:13.028Z,94409.16
2023-02-01T20:50:41.496Z,94406.97
2023-02-01T20:53:12.790Z,94413.75
2023-02-01T20:55:52.244Z,94409.19
2023-02-01T20:58:23.346Z,94406.19
2023-02-01T21:00:52.384Z,94402.84
2023-02-01T21:03:21.498Z,94399.66
2023-02-01T21:05:53.050Z,94406.06
2023-02-01T21:08:22.047Z,94410.22
2023-02-01T21:10:59.170Z,94414.44
2023-02-01T21:13:31.796Z,94415.41
2023-02-01T21:16:00.706Z,94400.69
2023-02-01T21:18:29.367Z,94406.84
2023-02-01T21:20:58.253Z,94424.75
2023-02-01T21:23:26.785Z,94422.75
2023-02-01T21:25:55.216Z,94423.53
2023-02-01T21:28:23.905Z,94428.28
2023-02-01T21:30:54.066Z,94424.47
2023-02-01T21:33:22.587Z,94423.09
2023-02-01T21:35:52.742Z,94428.25
2023-02-01T21:38:21.189Z,94428.81
2023-02-01T21:41:11.378Z,94428.81
2023-02-01T21:43:39.854Z,94435.16
2023-02-01T21:46:09.787Z,94437.75
2023-02-01T21:49:04.106Z,94435.34
2023-02-01T21:51:30.297Z,94440.16
2023-02-01T21:53:58.933Z,94442.56
2023-02-01T21:56:27.699Z,94444.69
2023-02-01T21:59:02.273Z,94434.50
2023-02-01T22:01:32.609Z,94441.63
2023-02-01T22:04:01.106Z,94439.19
2023-02-01T22:06:33.191Z,94445.19
2023-02-01T22:09:01.934Z,94441.97
2023-02-01T22:11:31.250Z,94451.34
2023-02-01T22:14:00.187Z,94446.94
2023-02-01T22:16:31.400Z,94440.19
2023-02-01T22:19:01.471Z,94444.31
2023-02-01T22:21:29.965Z,94447.56
2023-02-01T22:24:00.147Z,94455.09
2023-02-01T22:26:29.402Z,94443.06
2023-02-01T22:28:57.883Z,94446.31
2023-02-01T22:31:26.493Z,94451.47
2023-02-01T22:33:56.668Z,94448.22
2023-02-01T22:36:26.514Z,94452.28
2023-02-01T22:38:55.469Z,94454.69
2023-02-01T22:41:23.884Z,94450.38
2023-02-01T22:43:52.397Z,94449.38
2023-02-01T22:46:25.389Z,94439.56
2023-02-01T22:48:54.140Z,94456.88
2023-02-01T22:51:26.742Z,94450.56
2023-02-01T22:53:57.953Z,94452.41
2023-02-01T22:56:30.286Z,94452.31
2023-02-01T22:59:01.626Z,94451.19
2023-02-01T23:01:30.665Z,94455.00
2023-02-01T23:04:23.856Z,94449.53
2023-02-01T23:06:53.970Z,94453.09
2023-02-01T23:09:25.205Z,94455.06
2023-02-01T23:11:55.375Z,94448.91
2023-02-01T23:14:24.014Z,94457.88
2023-02-01T23:16:52.536Z,94448.44
2023-02-01T23:19:21.913Z,94459.00
2023-02-01T23:21:50.634Z,94451.47
2023-02-01T23:24:20.511Z,94455.47
2023-02-01T23:26:49.035Z,94451.50
2023-02-01T23:29:20.057Z,94461.06
2023-02-01T23:32:24.399Z,94460.22
2023-02-01T23:34:52.861Z,94457.44
2023-02-01T23:37:21.278Z,94460.03
2023-02-01T23:39:52.141Z,94460.66
2023-02-01T23:42:20.813Z,94466.25
2023-02-01T23:44:49.654Z,94464.28
2023-02-01T23:47:18.221Z,94460.25
2023-02-01T23:49:46.687Z,94463.09
2023-02-01T23:52:15.256Z,94465.69
2023-02-01T23:54:43.783Z,94467.66
2023-02-01T23:57:13.743Z,94468.72
2023-02-01T23:59:42.235Z,94467.31
